createdAt,value
2022-10-09T00:00:29.000Z,6.99
2022-10-09T00:01:29.000Z,6.99
2022-10-09T00:02:29.000Z,6.97
2022-10-09T00:03:29.000Z,7.00
2022-10-09T00:04:29.000Z,6.97
2022-10-09T00:05:29.000Z,6.93
2022-10-09T00:06:29.000Z,6.99
2022-10-09T00:07:29.000Z,6.97
2022-10-09T00:08:29.000Z,6.96
2022-10-09T00:09:29.000Z,6.96
2022-10-09T00:10:29.000Z,6.97
2022-10-09T00:11:29.000Z,7.00
2022-10-09T00:12:29.000Z,6.97
2022-10-09T00:13:29.000Z,6.93
2022-10-09T00:14:29.000Z,6.91
2022-10-09T00:15:29.000Z,6.91
2022-10-09T00:16:29.000Z,6.89
2022-10-09T00:17:29.000Z,6.86
2022-10-09T00:18:29.000Z,6.86
2022-10-09T00:19:29.000Z,6.82
2022-10-09T00:20:29.000Z,6.86
2022-10-09T00:21:29.000Z,6.75
2022-10-09T00:22:29.000Z,6.76
2022-10-09T00:23:29.000Z,6.73
2022-10-09T00:24:29.000Z,6.71
2022-10-09T00:25:29.000Z,6.73
2022-10-09T00:26:29.000Z,6.69
2022-10-09T00:27:29.000Z,6.65
2022-10-09T00:28:29.000Z,6.64
2022-10-09T00:29:29.000Z,6.63
2022-10-09T00:30:29.000Z,6.65
2022-10-09T00:31:29.000Z,6.65
2022-10-09T00:32:29.000Z,6.64
2022-10-09T00:33:29.000Z,6.65
2022-10-09T00:34:29.000Z,6.64
2022-10-09T00:35:29.000Z,6.63
2022-10-09T00:36:29.000Z,6.65
2022-10-09T00:37:29.000Z,6.64
2022-10-09T00:38:29.000Z,6.65
2022-10-09T00:39:29.000Z,6.60
2022-10-09T00:40:29.000Z,6.61
2022-10-09T00:41:29.000Z,6.63
2022-10-09T00:42:29.000Z,6.61
2022-10-09T00:43:29.000Z,6.58
2022-10-09T00:44:29.000Z,6.58
2022-10-09T00:45:29.000Z,6.58
2022-10-09T00:46:29.000Z,6.54
2022-10-09T00:47:29.000Z,6.55
2022-10-09T00:48:29.000Z,6.50
2022-10-09T00:49:28.000Z,6.48
2022-10-09T00:50:28.000Z,6.48
2022-10-09T00:51:28.000Z,6.40
2022-10-09T00:52:28.000Z,6.45
2022-10-09T00:53:28.000Z,6.38
2022-10-09T00:54:28.000Z,6.43
2022-10-09T00:55:28.000Z,6.42
2022-10-09T00:56:28.000Z,6.45
2022-10-09T00:57:28.000Z,6.42
2022-10-09T00:58:28.000Z,6.39
2022-10-09T00:59:28.000Z,6.40
2022-10-09T01:00:28.000Z,6.39
2022-10-09T01:01:28.000Z,6.43
2022-10-09T01:02:28.000Z,6.39
2022-10-09T01:03:28.000Z,6.40
2022-10-09T01:04:28.000Z,6.38
2022-10-09T01:05:28.000Z,6.38
2022-10-09T01:06:28.000Z,6.36
2022-10-09T01:07:28.000Z,6.33
2022-10-09T01:08:28.000Z,6.33
2022-10-09T01:09:28.000Z,6.30
2022-10-09T01:10:28.000Z,6.28
2022-10-09T01:11:28.000Z,6.30
2022-10-09T01:12:28.000Z,6.30
2022-10-09T01:13:28.000Z,6.27
2022-10-09T01:14:28.000Z,6.21
2022-10-09T01:15:28.000Z,6.17
2022-10-09T01:16:28.000Z,6.19
2022-10-09T01:17:28.000Z,6.16
2022-10-09T01:18:28.000Z,6.19
2022-10-09T01:19:28.000Z,6.17
2022-10-09T01:20:28.000Z,6.14
2022-10-09T01:21:28.000Z,6.13
2022-10-09T01:22:28.000Z,6.21
2022-10-09T01:23:28.000Z,6.16
2022-10-09T01:24:28.000Z,6.17
2022-10-09T01:25:28.000Z,6.14
2022-10-09T01:26:28.000Z,6.14
2022-10-09T01:27:28.000Z,6.16
2022-10-09T01:28:28.000Z,6.14
2022-10-09T01:29:28.000Z,6.16
2022-10-09T01:30:28.000Z,6.16
2022-10-09T01:31:28.000Z,6.13
2022-10-09T01:32:28.000Z,6.16
2022-10-09T01:33:28.000Z,6.13
2022-10-09T01:34:28.000Z,6.20
2022-10-09T01:35:28.000Z,6.14
2022-10-09T01:36:28.000Z,6.19
2022-10-09T01:37:28.000Z,6.19
2022-10-09T01:38:28.000Z,6.14
2022-10-09T01:39:28.000Z,6.14
2022-10-09T01:40:28.000Z,6.14
2022-10-09T01:41:28.000Z,6.16
2022-10-09T01:42:28.000Z,6.08
2022-10-09T01:43:28.000Z,6.11
2022-10-09T01:44:28.000Z,6.14
2022-10-09T01:45:28.000Z,6.10
2022-10-09T01:46:28.000Z,6.08
2022-10-09T01:47:28.000Z,6.06
2022-10-09T01:48:28.000Z,6.05
2022-10-09T01:49:28.000Z,5.99
2022-10-09T01:50:28.000Z,5.96
2022-10-09T01:51:28.000Z,5.99
2022-10-09T01:52:28.000Z,5.96
2022-10-09T01:53:28.000Z,5.93
2022-10-09T01:54:28.000Z,5.93
2022-10-09T01:55:28.000Z,5.88
2022-10-09T01:56:28.000Z,5.84
2022-10-09T01:57:28.000Z,5.87
2022-10-09T01:58:28.000Z,5.87
2022-10-09T01:59:28.000Z,5.85
2022-10-09T02:00:28.000Z,5.85
2022-10-09T02:01:28.000Z,5.90
2022-10-09T02:02:28.000Z,5.84
2022-10-09T02:03:28.000Z,5.90
2022-10-09T02:04:27.000Z,5.92
2022-10-09T02:05:27.000Z,5.95
2022-10-09T02:06:27.000Z,5.96
2022-10-09T02:07:27.000Z,6.01
2022-10-09T02:08:27.000Z,6.03
2022-10-09T02:09:27.000Z,5.99
2022-10-09T02:10:27.000Z,6.05
2022-10-09T02:11:27.000Z,6.05
2022-10-09T02:12:27.000Z,6.03
2022-10-09T02:13:27.000Z,6.05
2022-10-09T02:14:27.000Z,6.03
2022-10-09T02:15:27.000Z,6.06
2022-10-09T02:16:27.000Z,6.02
2022-10-09T02:17:27.000Z,6.01
2022-10-09T02:18:27.000Z,6.03
2022-10-09T02:19:27.000Z,6.01
2022-10-09T02:20:27.000Z,5.98
2022-10-09T02:21:27.000Z,5.98
2022-10-09T02:22:27.000Z,5.92
2022-10-09T02:23:27.000Z,5.95
2022-10-09T02:24:27.000Z,5.93
2022-10-09T02:25:27.000Z,5.88
2022-10-09T02:26:27.000Z,5.87
2022-10-09T02:27:27.000Z,5.84
2022-10-09T02:28:27.000Z,5.80
2022-10-09T02:29:27.000Z,5.77
2022-10-09T02:30:27.000Z,5.75
2022-10-09T02:31:27.000Z,5.73
2022-10-09T02:32:27.000Z,5.66
2022-10-09T02:33:27.000Z,5.66
2022-10-09T02:34:27.000Z,5.65
2022-10-09T02:35:27.000Z,5.63
2022-10-09T02:36:27.000Z,5.60
2022-10-09T02:37:27.000Z,5.63
2022-10-09T02:38:27.000Z,5.59
2022-10-09T02:39:27.000Z,5.58
2022-10-09T02:40:27.000Z,5.60
2022-10-09T02:41:27.000Z,5.55
2022-10-09T02:42:27.000Z,5.56
2022-10-09T02:43:27.000Z,5.58
2022-10-09T02:44:27.000Z,5.59
2022-10-09T02:45:27.000Z,5.56
2022-10-09T02:46:27.000Z,5.51
2022-10-09T02:47:27.000Z,5.51
2022-10-09T02:48:27.000Z,5.47
2022-10-09T02:49:27.000Z,5.51
2022-10-09T02:50:27.000Z,5.49
2022-10-09T02:51:27.000Z,5.49
2022-10-09T02:52:27.000Z,5.51
2022-10-09T02:53:27.000Z,5.44
2022-10-09T02:54:27.000Z,5.41
2022-10-09T02:55:27.000Z,5.41
2022-10-09T02:56:27.000Z,5.40
2022-10-09T02:57:27.000Z,5.44
2022-10-09T02:58:27.000Z,5.45
2022-10-09T02:59:27.000Z,5.45
2022-10-09T03:00:27.000Z,5.45
2022-10-09T03:01:27.000Z,5.45
2022-10-09T03:02:27.000Z,5.51
2022-10-09T03:03:27.000Z,5.55
2022-10-09T03:04:27.000Z,5.62
2022-10-09T03:05:27.000Z,5.58
2022-10-09T03:06:27.000Z,5.56
2022-10-09T03:07:27.000Z,5.59
2022-10-09T03:08:27.000Z,5.58
2022-10-09T03:09:27.000Z,5.62
2022-10-09T03:10:27.000Z,5.62
2022-10-09T03:11:27.000Z,5.65
2022-10-09T03:12:27.000Z,5.65
2022-10-09T03:13:27.000Z,5.65
2022-10-09T03:14:27.000Z,5.59
2022-10-09T03:15:27.000Z,5.59
2022-10-09T03:16:27.000Z,5.56
2022-10-09T03:17:27.000Z,5.59
2022-10-09T03:18:26.000Z,5.65
2022-10-09T03:19:26.000Z,5.62
2022-10-09T03:20:26.000Z,5.60
2022-10-09T03:21:26.000Z,5.58
2022-10-09T03:22:26.000Z,5.62
2022-10-09T03:23:26.000Z,5.58
2022-10-09T03:24:26.000Z,5.63
2022-10-09T03:25:26.000Z,5.65
2022-10-09T03:26:26.000Z,5.62
2022-10-09T03:26:26.000Z,5.62
2022-10-09T03:27:26.000Z,5.60
2022-10-09T03:27:26.000Z,5.60
2022-10-09T03:28:26.000Z,5.58
2022-10-09T03:28:26.000Z,5.58
2022-10-09T03:29:26.000Z,5.58
2022-10-09T03:29:26.000Z,5.58
2022-10-09T03:30:26.000Z,5.59
2022-10-09T03:30:26.000Z,5.59
2022-10-09T03:31:26.000Z,5.55
2022-10-09T03:32:26.000Z,5.56
2022-10-09T03:33:26.000Z,5.51
2022-10-09T03:34:26.000Z,5.52
2022-10-09T03:35:26.000Z,5.52
2022-10-09T03:36:26.000Z,5.51
2022-10-09T03:37:26.000Z,5.52
2022-10-09T03:38:26.000Z,5.48
2022-10-09T03:39:26.000Z,5.45
2022-10-09T03:40:26.000Z,5.47
2022-10-09T03:41:26.000Z,5.47
2022-10-09T03:42:26.000Z,5.42
2022-10-09T03:43:26.000Z,5.41
2022-10-09T03:44:26.000Z,5.35
2022-10-09T03:45:26.000Z,5.35
2022-10-09T03:46:26.000Z,5.30
2022-10-09T03:47:26.000Z,5.27
2022-10-09T03:48:26.000Z,5.20
2022-10-09T03:49:26.000Z,5.19
2022-10-09T03:50:26.000Z,5.20
2022-10-09T03:51:26.000Z,5.19
2022-10-09T03:52:26.000Z,5.11
2022-10-09T03:53:26.000Z,5.11
2022-10-09T03:54:26.000Z,5.11
2022-10-09T03:55:26.000Z,5.14
2022-10-09T03:56:26.000Z,5.17
2022-10-09T03:57:26.000Z,5.17
2022-10-09T03:58:26.000Z,5.20
2022-10-09T03:59:26.000Z,5.26
2022-10-09T04:00:26.000Z,5.24
2022-10-09T04:01:26.000Z,5.24
2022-10-09T04:02:26.000Z,5.26
2022-10-09T04:03:26.000Z,5.27
2022-10-09T04:04:26.000Z,5.30
2022-10-09T04:05:26.000Z,5.27
2022-10-09T04:06:26.000Z,5.33
2022-10-09T04:07:26.000Z,5.30
2022-10-09T04:08:26.000Z,5.32
2022-10-09T04:09:26.000Z,5.32
2022-10-09T04:10:26.000Z,5.38
2022-10-09T04:11:26.000Z,5.42
2022-10-09T04:12:26.000Z,5.37
2022-10-09T04:13:26.000Z,5.42
2022-10-09T04:14:26.000Z,5.44
2022-10-09T04:15:26.000Z,5.42
2022-10-09T04:16:26.000Z,5.40
2022-10-09T04:17:26.000Z,5.37
2022-10-09T04:18:26.000Z,5.38
2022-10-09T04:19:26.000Z,5.37
2022-10-09T04:20:26.000Z,5.38
2022-10-09T04:21:26.000Z,5.33
2022-10-09T04:22:26.000Z,5.38
2022-10-09T04:23:26.000Z,5.44
2022-10-09T04:24:26.000Z,5.40
2022-10-09T04:25:26.000Z,5.38
2022-10-09T04:26:26.000Z,5.38
2022-10-09T04:27:26.000Z,5.37
2022-10-09T04:28:26.000Z,5.35
2022-10-09T04:29:26.000Z,5.35
2022-10-09T04:30:26.000Z,5.35
2022-10-09T04:31:26.000Z,5.37
2022-10-09T04:32:26.000Z,5.33
2022-10-09T04:33:25.000Z,5.35
2022-10-09T04:34:25.000Z,5.33
2022-10-09T04:35:25.000Z,5.33
2022-10-09T04:36:25.000Z,5.33
2022-10-09T04:37:25.000Z,5.33
2022-10-09T04:38:25.000Z,5.35
2022-10-09T04:39:25.000Z,5.30
2022-10-09T04:40:25.000Z,5.26
2022-10-09T04:41:25.000Z,5.30
2022-10-09T04:42:25.000Z,5.29
2022-10-09T04:43:25.000Z,5.23
2022-10-09T04:44:25.000Z,5.24
2022-10-09T04:45:25.000Z,5.24
2022-10-09T04:46:25.000Z,5.22
2022-10-09T04:47:25.000Z,5.17
2022-10-09T04:48:25.000Z,5.20
2022-10-09T04:49:25.000Z,5.24
2022-10-09T04:50:25.000Z,5.23
2022-10-09T04:51:25.000Z,5.22
2022-10-09T04:52:25.000Z,5.23
2022-10-09T04:53:25.000Z,5.26
2022-10-09T04:54:25.000Z,5.20
2022-10-09T04:55:25.000Z,5.17
2022-10-09T04:56:25.000Z,5.20
2022-10-09T04:56:25.000Z,5.20
2022-10-09T04:57:25.000Z,5.12
2022-10-09T04:57:25.000Z,5.12
2022-10-09T04:58:25.000Z,5.11
2022-10-09T04:58:25.000Z,5.11
2022-10-09T04:59:25.000Z,5.15
2022-10-09T04:59:25.000Z,5.15
2022-10-09T05:00:25.000Z,5.15
2022-10-09T05:00:25.000Z,5.15
2022-10-09T05:01:25.000Z,5.15
2022-10-09T05:02:25.000Z,5.14
2022-10-09T05:03:25.000Z,5.11
2022-10-09T05:04:25.000Z,5.09
2022-10-09T05:05:25.000Z,5.09
2022-10-09T05:06:25.000Z,5.09
2022-10-09T05:07:25.000Z,5.09
2022-10-09T05:08:25.000Z,5.06
2022-10-09T05:09:25.000Z,5.11
2022-10-09T05:10:25.000Z,5.08
2022-10-09T05:11:25.000Z,5.08
2022-10-09T05:11:25.000Z,5.08
2022-10-09T05:12:25.000Z,5.11
2022-10-09T05:12:25.000Z,5.11
2022-10-09T05:13:25.000Z,5.11
2022-10-09T05:13:25.000Z,5.11
2022-10-09T05:14:25.000Z,5.14
2022-10-09T05:14:25.000Z,5.14
2022-10-09T05:15:25.000Z,5.08
2022-10-09T05:15:25.000Z,5.08
2022-10-09T05:16:25.000Z,5.06
2022-10-09T05:17:25.000Z,5.05
2022-10-09T05:18:25.000Z,5.01
2022-10-09T05:19:25.000Z,4.93
2022-10-09T05:20:25.000Z,4.93
2022-10-09T05:21:25.000Z,4.87
2022-10-09T05:22:25.000Z,4.88
2022-10-09T05:23:25.000Z,4.83
2022-10-09T05:24:25.000Z,4.83
2022-10-09T05:25:25.000Z,4.87
2022-10-09T05:26:25.000Z,4.80
2022-10-09T05:27:25.000Z,4.79
2022-10-09T05:28:25.000Z,4.77
2022-10-09T05:29:25.000Z,4.75
2022-10-09T05:30:25.000Z,4.72
2022-10-09T05:31:25.000Z,4.72
2022-10-09T05:32:25.000Z,4.75
2022-10-09T05:33:25.000Z,4.69
2022-10-09T05:34:25.000Z,4.68
2022-10-09T05:35:25.000Z,4.68
2022-10-09T05:36:25.000Z,4.71
2022-10-09T05:37:25.000Z,4.61
2022-10-09T05:38:25.000Z,4.65
2022-10-09T05:39:25.000Z,4.59
2022-10-09T05:40:25.000Z,4.57
2022-10-09T05:41:25.000Z,4.57
2022-10-09T05:42:25.000Z,4.56
2022-10-09T05:43:25.000Z,4.50
2022-10-09T05:44:25.000Z,4.51
2022-10-09T05:45:25.000Z,4.53
2022-10-09T05:46:25.000Z,4.50
2022-10-09T05:47:25.000Z,4.44
2022-10-09T05:48:25.000Z,4.47
2022-10-09T05:49:24.000Z,4.53
2022-10-09T05:50:24.000Z,4.54
2022-10-09T05:51:24.000Z,4.56
2022-10-09T05:52:24.000Z,4.61
2022-10-09T05:53:24.000Z,4.59
2022-10-09T05:54:24.000Z,4.61
2022-10-09T05:55:24.000Z,4.59
2022-10-09T05:56:24.000Z,4.59
2022-10-09T05:57:24.000Z,4.65
2022-10-09T05:58:24.000Z,4.64
2022-10-09T05:59:24.000Z,4.74
2022-10-09T06:00:24.000Z,4.77
2022-10-09T06:01:24.000Z,4.87
2022-10-09T06:02:24.000Z,4.93
2022-10-09T06:03:24.000Z,4.99
2022-10-09T06:04:24.000Z,5.06
2022-10-09T06:05:24.000Z,5.12
2022-10-09T06:06:24.000Z,5.19
2022-10-09T06:07:24.000Z,5.27
2022-10-09T06:08:24.000Z,5.30
2022-10-09T06:09:24.000Z,5.37
2022-10-09T06:10:24.000Z,5.42
2022-10-09T06:11:24.000Z,5.47
2022-10-09T06:12:24.000Z,5.56
2022-10-09T06:13:24.000Z,5.55
2022-10-09T06:14:24.000Z,5.62
2022-10-09T06:15:24.000Z,5.63
2022-10-09T06:16:24.000Z,5.65
2022-10-09T06:17:24.000Z,5.63
2022-10-09T06:18:24.000Z,5.66
2022-10-09T06:19:24.000Z,5.78
2022-10-09T06:20:24.000Z,5.75
2022-10-09T06:21:24.000Z,5.77
2022-10-09T06:22:24.000Z,5.81
2022-10-09T06:23:24.000Z,5.84
2022-10-09T06:24:24.000Z,5.90
2022-10-09T06:25:24.000Z,5.93
2022-10-09T06:26:24.000Z,5.96
2022-10-09T06:27:24.000Z,6.05
2022-10-09T06:28:24.000Z,6.03
2022-10-09T06:29:24.000Z,6.05
2022-10-09T06:30:24.000Z,6.19
2022-10-09T06:31:24.000Z,6.16
2022-10-09T06:32:24.000Z,6.19
2022-10-09T06:33:24.000Z,6.21
2022-10-09T06:34:24.000Z,6.30
2022-10-09T06:35:24.000Z,6.32
2022-10-09T06:36:24.000Z,6.35
2022-10-09T06:37:24.000Z,6.36
2022-10-09T06:38:24.000Z,6.40
2022-10-09T06:39:24.000Z,6.46
2022-10-09T06:40:24.000Z,6.46
2022-10-09T06:41:24.000Z,6.50
2022-10-09T06:42:24.000Z,6.55
2022-10-09T06:43:24.000Z,6.57
2022-10-09T06:44:24.000Z,6.64
2022-10-09T06:45:24.000Z,6.68
2022-10-09T06:46:24.000Z,6.76
2022-10-09T06:47:24.000Z,6.69
2022-10-09T06:48:24.000Z,6.72
2022-10-09T06:49:24.000Z,6.78
2022-10-09T06:50:24.000Z,6.78
2022-10-09T06:51:24.000Z,6.83
2022-10-09T06:52:24.000Z,6.86
2022-10-09T06:53:24.000Z,6.86
2022-10-09T06:54:24.000Z,6.94
2022-10-09T06:55:24.000Z,6.97
2022-10-09T06:56:24.000Z,7.00
2022-10-09T06:57:24.000Z,7.00
2022-10-09T06:58:24.000Z,7.05
2022-10-09T06:59:24.000Z,7.08
2022-10-09T07:00:24.000Z,7.16
2022-10-09T07:01:24.000Z,7.16
2022-10-09T07:02:24.000Z,7.21
2022-10-09T07:03:24.000Z,7.23
2022-10-09T07:04:23.000Z,7.27
2022-10-09T07:05:23.000Z,7.30
2022-10-09T07:06:23.000Z,7.30
2022-10-09T07:07:23.000Z,7.36
2022-10-09T07:08:23.000Z,7.39
2022-10-09T07:09:23.000Z,7.44
2022-10-09T07:10:23.000Z,7.50
2022-10-09T07:11:23.000Z,7.48
2022-10-09T07:12:23.000Z,7.54
2022-10-09T07:13:23.000Z,7.62
2022-10-09T07:14:23.000Z,7.66
2022-10-09T07:15:23.000Z,7.66
2022-10-09T07:16:23.000Z,7.70
2022-10-09T07:17:23.000Z,7.79
2022-10-09T07:18:23.000Z,7.73
2022-10-09T07:19:23.000Z,7.79
2022-10-09T07:20:23.000Z,7.84
2022-10-09T07:21:23.000Z,7.84
2022-10-09T07:22:23.000Z,7.85
2022-10-09T07:23:23.000Z,7.91
2022-10-09T07:24:23.000Z,7.92
2022-10-09T07:25:23.000Z,7.99
2022-10-09T07:26:23.000Z,8.06
2022-10-09T07:27:23.000Z,8.09
2022-10-09T07:28:23.000Z,8.09
2022-10-09T07:29:23.000Z,8.13
2022-10-09T07:30:23.000Z,8.14
2022-10-09T07:31:23.000Z,8.21
2022-10-09T07:32:23.000Z,8.25
2022-10-09T07:33:23.000Z,8.28
2022-10-09T07:34:23.000Z,8.34
2022-10-09T07:35:23.000Z,8.37
2022-10-09T07:36:23.000Z,8.40
2022-10-09T07:37:23.000Z,8.47
2022-10-09T07:38:23.000Z,8.50
2022-10-09T07:39:23.000Z,8.57
2022-10-09T07:40:23.000Z,8.58
2022-10-09T07:41:23.000Z,8.63
2022-10-09T07:42:23.000Z,8.64
2022-10-09T07:43:23.000Z,8.65
2022-10-09T07:44:23.000Z,8.70
2022-10-09T07:45:23.000Z,8.73
2022-10-09T07:46:23.000Z,8.80
2022-10-09T07:47:23.000Z,8.83
2022-10-09T07:48:23.000Z,8.83
2022-10-09T07:49:23.000Z,8.86
2022-10-09T07:50:23.000Z,8.91
2022-10-09T07:51:23.000Z,8.96
2022-10-09T07:52:23.000Z,8.97
2022-10-09T07:53:23.000Z,9.01
2022-10-09T07:54:23.000Z,9.06
2022-10-09T07:55:23.000Z,9.10
2022-10-09T07:56:23.000Z,9.16
2022-10-09T07:57:23.000Z,9.22
2022-10-09T07:58:23.000Z,9.23
2022-10-09T07:59:23.000Z,9.31
2022-10-09T08:00:23.000Z,9.38
2022-10-09T08:01:23.000Z,9.41
2022-10-09T08:02:23.000Z,9.48
2022-10-09T08:03:23.000Z,9.52
2022-10-09T08:04:23.000Z,9.58
2022-10-09T08:05:23.000Z,9.60
2022-10-09T08:06:23.000Z,9.67
2022-10-09T08:07:23.000Z,9.71
2022-10-09T08:08:23.000Z,9.74
2022-10-09T08:09:23.000Z,9.81
2022-10-09T08:10:23.000Z,9.85
2022-10-09T08:11:23.000Z,9.92
2022-10-09T08:12:23.000Z,9.95
2022-10-09T08:13:23.000Z,10.01
2022-10-09T08:14:23.000Z,10.06
2022-10-09T08:15:23.000Z,10.10
2022-10-09T08:16:23.000Z,10.14
2022-10-09T08:17:23.000Z,10.16
2022-10-09T08:18:22.000Z,10.20
2022-10-09T08:19:22.000Z,10.24
2022-10-09T08:20:22.000Z,10.22
2022-10-09T08:21:22.000Z,10.26
2022-10-09T08:22:22.000Z,10.34
2022-10-09T08:23:22.000Z,10.35
2022-10-09T08:24:22.000Z,10.36
2022-10-09T08:25:22.000Z,10.43
2022-10-09T08:26:22.000Z,10.47
2022-10-09T08:27:22.000Z,10.49
2022-10-09T08:28:22.000Z,10.54
2022-10-09T08:29:22.000Z,10.65
2022-10-09T08:30:22.000Z,10.68
2022-10-09T08:31:22.000Z,10.75
2022-10-09T08:32:22.000Z,10.84
2022-10-09T08:33:22.000Z,10.87
2022-10-09T08:34:22.000Z,10.91
2022-10-09T08:35:22.000Z,10.94
2022-10-09T08:36:22.000Z,11.02
2022-10-09T08:37:22.000Z,11.06
2022-10-09T08:38:22.000Z,11.08
2022-10-09T08:39:22.000Z,11.11
2022-10-09T08:40:22.000Z,11.20
2022-10-09T08:41:22.000Z,11.21
2022-10-09T08:42:22.000Z,11.23
2022-10-09T08:43:22.000Z,11.27
2022-10-09T08:44:22.000Z,11.33
2022-10-09T08:45:22.000Z,11.38
2022-10-09T08:46:22.000Z,11.42
2022-10-09T08:47:22.000Z,11.49
2022-10-09T08:48:22.000Z,11.57
2022-10-09T08:49:22.000Z,11.62
2022-10-09T08:50:22.000Z,11.66
2022-10-09T08:51:22.000Z,11.67
2022-10-09T08:52:22.000Z,11.75
2022-10-09T08:53:22.000Z,11.81
2022-10-09T08:54:22.000Z,11.88
2022-10-09T08:55:22.000Z,12.00
2022-10-09T08:56:22.000Z,12.05
2022-10-09T08:57:22.000Z,12.15
2022-10-09T08:58:22.000Z,12.23
2022-10-09T08:59:22.000Z,12.33
2022-10-09T09:00:22.000Z,12.40
2022-10-09T09:01:22.000Z,12.41
2022-10-09T09:02:22.000Z,12.44
2022-10-09T09:03:22.000Z,12.48
2022-10-09T09:04:22.000Z,12.49
2022-10-09T09:05:22.000Z,12.52
2022-10-09T09:06:22.000Z,12.58
2022-10-09T09:07:22.000Z,12.66
2022-10-09T09:08:22.000Z,12.67
2022-10-09T09:09:22.000Z,12.63
2022-10-09T09:10:22.000Z,12.73
2022-10-09T09:11:22.000Z,12.77
2022-10-09T09:12:22.000Z,12.89
2022-10-09T09:13:22.000Z,12.91
2022-10-09T09:14:22.000Z,12.95
2022-10-09T09:15:22.000Z,13.09
2022-10-09T09:16:22.000Z,13.14
2022-10-09T09:17:22.000Z,13.14
2022-10-09T09:18:22.000Z,13.22
2022-10-09T09:19:22.000Z,13.19
2022-10-09T09:20:22.000Z,13.24
2022-10-09T09:21:22.000Z,13.24
2022-10-09T09:22:22.000Z,13.29
2022-10-09T09:23:22.000Z,13.29
2022-10-09T09:24:22.000Z,13.35
2022-10-09T09:25:22.000Z,13.38
2022-10-09T09:26:22.000Z,13.47
2022-10-09T09:27:22.000Z,13.50
2022-10-09T09:28:22.000Z,13.53
2022-10-09T09:29:22.000Z,13.57
2022-10-09T09:30:22.000Z,13.59
2022-10-09T09:31:22.000Z,13.65
2022-10-09T09:32:21.000Z,13.66
2022-10-09T09:33:21.000Z,13.71
2022-10-09T09:34:21.000Z,13.80
2022-10-09T09:35:21.000Z,13.86
2022-10-09T09:36:21.000Z,13.96
2022-10-09T09:37:21.000Z,14.08
2022-10-09T09:38:21.000Z,14.21
2022-10-09T09:39:21.000Z,14.31
2022-10-09T09:40:21.000Z,14.44
2022-10-09T09:41:21.000Z,14.56
2022-10-09T09:42:21.000Z,14.67
2022-10-09T09:43:21.000Z,14.78
2022-10-09T09:44:21.000Z,14.86
2022-10-09T09:45:21.000Z,14.97
2022-10-09T09:46:21.000Z,15.11
2022-10-09T09:47:21.000Z,15.25
2022-10-09T09:48:21.000Z,15.38
2022-10-09T09:49:21.000Z,15.58
2022-10-09T09:50:21.000Z,15.68
2022-10-09T09:51:21.000Z,15.76
2022-10-09T09:52:21.000Z,15.85
2022-10-09T09:53:21.000Z,15.98
2022-10-09T09:54:21.000Z,16.18
2022-10-09T09:55:21.000Z,16.36
2022-10-09T09:56:21.000Z,16.60
2022-10-09T09:57:21.000Z,16.87
2022-10-09T09:58:21.000Z,17.10
2022-10-09T09:59:21.000Z,17.30
2022-10-09T10:00:21.000Z,17.46
2022-10-09T10:01:21.000Z,17.47
2022-10-09T10:02:21.000Z,17.55
2022-10-09T10:03:21.000Z,17.66
2022-10-09T10:04:21.000Z,17.68
2022-10-09T10:05:21.000Z,17.74
2022-10-09T10:06:21.000Z,17.77
2022-10-09T10:07:21.000Z,17.83
2022-10-09T10:08:21.000Z,17.74
2022-10-09T10:09:21.000Z,17.60
2022-10-09T10:10:21.000Z,17.40
2022-10-09T10:11:21.000Z,17.33
2022-10-09T10:12:21.000Z,17.33
2022-10-09T10:13:21.000Z,17.32
2022-10-09T10:14:21.000Z,17.39
2022-10-09T10:15:21.000Z,17.51
2022-10-09T10:16:21.000Z,17.66
2022-10-09T10:17:21.000Z,17.68
2022-10-09T10:18:21.000Z,17.89
2022-10-09T10:19:21.000Z,18.04
2022-10-09T10:20:21.000Z,18.20
2022-10-09T10:21:21.000Z,18.47
2022-10-09T10:22:21.000Z,18.68
2022-10-09T10:23:21.000Z,18.78
2022-10-09T10:24:21.000Z,18.83
2022-10-09T10:25:21.000Z,18.83
2022-10-09T10:26:21.000Z,18.97
2022-10-09T10:27:21.000Z,19.21
2022-10-09T10:28:21.000Z,19.40
2022-10-09T10:29:21.000Z,19.38
2022-10-09T10:30:21.000Z,19.31
2022-10-09T10:31:21.000Z,19.25
2022-10-09T10:32:21.000Z,19.30
2022-10-09T10:33:21.000Z,19.05
2022-10-09T10:34:21.000Z,18.78
2022-10-09T10:35:21.000Z,18.53
2022-10-09T10:36:21.000Z,18.42
2022-10-09T10:37:21.000Z,18.41
2022-10-09T10:38:21.000Z,18.49
2022-10-09T10:39:21.000Z,18.44
2022-10-09T10:40:21.000Z,18.36
2022-10-09T10:41:21.000Z,18.34
2022-10-09T10:42:21.000Z,18.53
2022-10-09T10:43:21.000Z,18.50
2022-10-09T10:44:21.000Z,18.42
2022-10-09T10:45:20.000Z,18.39
2022-10-09T10:46:20.000Z,18.31
2022-10-09T10:47:20.000Z,18.26
2022-10-09T10:48:20.000Z,18.17
2022-10-09T10:49:20.000Z,18.23
2022-10-09T10:50:20.000Z,18.19
2022-10-09T10:51:20.000Z,18.20
2022-10-09T10:52:20.000Z,18.23
2022-10-09T10:53:20.000Z,18.26
2022-10-09T10:54:20.000Z,18.25
2022-10-09T10:55:20.000Z,18.23
2022-10-09T10:56:20.000Z,18.21
2022-10-09T10:57:20.000Z,18.29
2022-10-09T10:58:20.000Z,18.36
2022-10-09T10:59:20.000Z,18.46
2022-10-09T11:00:20.000Z,18.44
2022-10-09T11:01:20.000Z,18.44
2022-10-09T11:02:20.000Z,18.47
2022-10-09T11:03:20.000Z,18.53
2022-10-09T11:04:20.000Z,18.68
2022-10-09T11:05:20.000Z,18.89
2022-10-09T11:06:20.000Z,19.17
2022-10-09T11:07:20.000Z,19.13
2022-10-09T11:08:20.000Z,18.94
2022-10-09T11:09:20.000Z,18.71
2022-10-09T11:10:20.000Z,18.71
2022-10-09T11:11:20.000Z,18.76
2022-10-09T11:12:20.000Z,18.86
2022-10-09T11:13:20.000Z,18.89
2022-10-09T11:14:20.000Z,19.02
2022-10-09T11:15:20.000Z,19.12
2022-10-09T11:16:20.000Z,19.21
2022-10-09T11:17:20.000Z,19.21
2022-10-09T11:18:20.000Z,18.97
2022-10-09T11:19:20.000Z,18.96
2022-10-09T11:20:20.000Z,19.06
2022-10-09T11:21:20.000Z,19.06
2022-10-09T11:22:20.000Z,18.97
2022-10-09T11:23:20.000Z,18.93
2022-10-09T11:24:20.000Z,19.01
2022-10-09T11:25:20.000Z,19.21
2022-10-09T11:26:20.000Z,19.31
2022-10-09T11:27:20.000Z,19.38
2022-10-09T11:28:20.000Z,19.32
2022-10-09T11:29:20.000Z,19.25
2022-10-09T11:30:20.000Z,19.28
2022-10-09T11:31:20.000Z,19.27
2022-10-09T11:32:20.000Z,19.34
2022-10-09T11:33:20.000Z,19.49
2022-10-09T11:34:20.000Z,19.58
2022-10-09T11:35:20.000Z,19.65
2022-10-09T11:36:20.000Z,19.68
2022-10-09T11:37:20.000Z,19.61
2022-10-09T11:38:20.000Z,19.49
2022-10-09T11:39:20.000Z,19.40
2022-10-09T11:40:20.000Z,19.34
2022-10-09T11:41:20.000Z,18.97
2022-10-09T11:42:20.000Z,18.84
2022-10-09T11:43:20.000Z,18.86
2022-10-09T11:44:20.000Z,19.02
2022-10-09T11:45:20.000Z,19.25
2022-10-09T11:46:20.000Z,19.45
2022-10-09T11:47:20.000Z,19.58
2022-10-09T11:48:20.000Z,19.75
2022-10-09T11:49:20.000Z,19.76
2022-10-09T11:50:20.000Z,19.85
2022-10-09T11:51:20.000Z,19.82
2022-10-09T11:52:20.000Z,19.75
2022-10-09T11:53:20.000Z,19.64
2022-10-09T11:54:20.000Z,19.49
2022-10-09T11:55:20.000Z,19.35
2022-10-09T11:56:20.000Z,19.27
2022-10-09T11:57:20.000Z,19.06
2022-10-09T11:58:19.000Z,18.96
2022-10-09T11:59:19.000Z,19.02
2022-10-09T12:00:19.000Z,18.94
2022-10-09T12:01:19.000Z,18.86
2022-10-09T12:02:19.000Z,18.69
2022-10-09T12:03:19.000Z,18.54
2022-10-09T12:04:19.000Z,18.56
2022-10-09T12:05:19.000Z,18.74
2022-10-09T12:06:19.000Z,18.96
2022-10-09T12:07:19.000Z,19.06
2022-10-09T12:08:19.000Z,19.12
2022-10-09T12:09:19.000Z,19.20
2022-10-09T12:10:19.000Z,19.17
2022-10-09T12:11:19.000Z,19.13
2022-10-09T12:12:19.000Z,19.20
2022-10-09T12:13:19.000Z,19.27
2022-10-09T12:14:19.000Z,19.24
2022-10-09T12:15:19.000Z,19.32
2022-10-09T12:16:19.000Z,19.27
2022-10-09T12:17:19.000Z,19.17
2022-10-09T12:18:19.000Z,19.07
2022-10-09T12:19:19.000Z,18.96
2022-10-09T12:20:19.000Z,18.82
2022-10-09T12:21:19.000Z,18.76
2022-10-09T12:22:19.000Z,18.75
2022-10-09T12:23:19.000Z,18.78
2022-10-09T12:24:19.000Z,18.76
2022-10-09T12:25:19.000Z,18.76
2022-10-09T12:26:19.000Z,18.83
2022-10-09T12:27:19.000Z,18.96
2022-10-09T12:28:19.000Z,19.10
2022-10-09T12:29:19.000Z,19.23
2022-10-09T12:30:19.000Z,19.30
2022-10-09T12:31:19.000Z,19.34
2022-10-09T12:32:19.000Z,19.38
2022-10-09T12:33:19.000Z,19.40
2022-10-09T12:34:19.000Z,19.30
2022-10-09T12:35:19.000Z,19.20
2022-10-09T12:36:19.000Z,19.01
2022-10-09T12:37:19.000Z,18.86
2022-10-09T12:38:19.000Z,18.75
2022-10-09T12:39:19.000Z,18.72
2022-10-09T12:40:19.000Z,18.62
2022-10-09T12:41:19.000Z,18.51
2022-10-09T12:42:19.000Z,18.44
2022-10-09T12:43:19.000Z,18.42
2022-10-09T12:44:19.000Z,18.39
2022-10-09T12:45:19.000Z,18.47
2022-10-09T12:46:19.000Z,18.66
2022-10-09T12:47:19.000Z,18.84
2022-10-09T12:48:19.000Z,19.07
2022-10-09T12:49:19.000Z,19.20
2022-10-09T12:50:19.000Z,19.32
2022-10-09T12:51:19.000Z,19.32
2022-10-09T12:52:19.000Z,19.31
2022-10-09T12:53:19.000Z,19.38
2022-10-09T12:54:19.000Z,19.42